createdAt,value
2022-08-20T00:00:39.819Z,24.9
2022-08-20T00:05:42.448Z,24.7
2022-08-20T00:10:53.704Z,24.6
2022-08-20T00:15:48.197Z,24.6
2022-08-20T00:20:50.515Z,24.5
2022-08-20T00:25:53.623Z,24.3
2022-08-20T00:30:55.870Z,24.1
2022-08-20T00:35:58.676Z,24.1
2022-08-20T00:41:01.190Z,24.1
2022-08-20T00:46:05.356Z,24
2022-08-20T00:51:08.096Z,24
2022-08-20T00:56:10.462Z,23.9
2022-08-20T01:01:13.319Z,23.9
2022-08-20T01:06:15.651Z,23.8
2022-08-20T01:11:18.336Z,23.7
2022-08-20T01:16:20.942Z,23.6
2022-08-20T01:21:23.856Z,23.6
2022-08-20T01:26:26.467Z,23.5
2022-08-20T01:31:28.750Z,23.5
2022-08-20T01:36:31.073Z,23.4
2022-08-20T01:41:34.176Z,23.1
2022-08-20T01:46:45.188Z,22.9
2022-08-20T01:51:38.225Z,22.8
2022-08-20T01:56:40.828Z,22.6
2022-08-20T02:01:51.070Z,22.3
2022-08-20T02:06:59.190Z,22.2
2022-08-20T02:11:51.975Z,22.3
2022-08-20T02:16:57.510Z,22.2
2022-08-20T02:22:00.245Z,22.2
2022-08-20T02:27:02.488Z,22.2
2022-08-20T02:32:35.608Z,22
2022-08-20T02:37:08.036Z,21.9
2022-08-20T02:42:10.356Z,21.6
2022-08-20T02:47:13.485Z,21.5
2022-08-20T02:52:17.062Z,21.4
2022-08-20T02:57:19.624Z,21.5
2022-08-20T03:02:22.202Z,21.4
2022-08-20T03:07:25.261Z,21.5
2022-08-20T03:12:28.094Z,21.5
2022-08-20T03:17:30.474Z,21.5
2022-08-20T03:22:33.474Z,21.5
2022-08-20T03:27:38.627Z,21.6
2022-08-20T03:32:42.276Z,21.6
2022-08-20T03:37:50.951Z,21.7
2022-08-20T03:42:53.865Z,21.7
2022-08-20T03:47:57.036Z,21.7
2022-08-20T03:53:00.362Z,21.6
2022-08-20T03:58:02.662Z,21.8
2022-08-20T04:03:05.005Z,21.9
2022-08-20T04:08:07.722Z,22
2022-08-20T04:13:11.937Z,22.1
2022-08-20T04:18:15.639Z,21.9
2022-08-20T04:23:18.097Z,21.9
2022-08-20T04:28:20.922Z,22
2022-08-20T04:33:37.398Z,22
2022-08-20T04:38:52.404Z,22
2022-08-20T04:43:34.797Z,21.9
2022-08-20T04:48:37.721Z,22.1
2022-08-20T04:53:40.039Z,22.1
2022-08-20T04:58:42.343Z,22.5
2022-08-20T05:03:45.270Z,23
2022-08-20T05:08:48.135Z,23.4
2022-08-20T05:13:50.534Z,23.3
2022-08-20T05:18:54.947Z,23.2
2022-08-20T05:23:57.823Z,23.1
2022-08-20T05:29:01.872Z,23.5
2022-08-20T05:34:04.577Z,23.5
2022-08-20T05:39:07.661Z,24.3
2022-08-20T05:44:10.045Z,24.3
2022-08-20T05:49:12.470Z,24.2
2022-08-20T05:54:15.590Z,24.3
2022-08-20T05:59:25.314Z,25
2022-08-20T06:04:27.885Z,24.9
2022-08-20T06:09:34.228Z,25.7
2022-08-20T06:14:38.853Z,25.7
2022-08-20T06:19:47.929Z,25.5
2022-08-20T06:24:42.581Z,25.3
2022-08-20T06:29:45.750Z,25.4
2022-08-20T06:34:53.721Z,25.5
2022-08-20T06:39:57.672Z,25.4
2022-08-20T06:45:01.050Z,24.9
2022-08-20T06:50:03.734Z,24.1
2022-08-20T06:55:06.551Z,23.3
2022-08-20T07:00:09.149Z,22.9
2022-08-20T07:05:12.296Z,22.6
2022-08-20T07:10:14.632Z,22.6
2022-08-20T07:15:16.906Z,22.6
2022-08-20T07:20:19.539Z,22.5
2022-08-20T07:25:22.990Z,22.4
2022-08-20T07:30:25.846Z,22.1
2022-08-20T07:35:29.263Z,21.1
2022-08-20T07:40:34.222Z,20.6
2022-08-20T07:45:56.566Z,20
2022-08-20T07:50:45.235Z,19.3
2022-08-20T07:56:05.535Z,18.9
2022-08-20T08:00:48.417Z,18.9
2022-08-20T08:05:52.163Z,19
2022-08-20T08:10:56.726Z,19
2022-08-20T08:15:59.339Z,19
2022-08-20T08:21:01.706Z,19
2022-08-20T08:26:04.268Z,19
2022-08-20T08:31:07.955Z,19.2
2022-08-20T08:36:11.200Z,19.4
2022-08-20T08:41:14.880Z,19.3
2022-08-20T08:46:17.488Z,19.6
2022-08-20T08:56:21.036Z,19.6
2022-08-20T09:01:58.951Z,20
2022-08-20T09:06:32.221Z,20.2
2022-08-20T09:11:40.974Z,20.5
2022-08-20T09:16:54.868Z,20.7
2022-08-20T09:21:48.250Z,20.9
2022-08-20T09:26:51.189Z,21
2022-08-20T09:31:55.076Z,21.1
2022-08-20T09:36:57.677Z,21.3
2022-08-20T09:42:03.912Z,21.5
2022-08-20T09:47:08.702Z,21.9
2022-08-20T09:52:12.335Z,21.9
2022-08-20T09:57:16.066Z,22.3
2022-08-20T10:02:21.016Z,22.2
2022-08-20T10:07:26.423Z,22.7
2022-08-20T10:12:29.183Z,22.7
2022-08-20T10:17:33.140Z,22.7
2022-08-20T10:22:35.931Z,22.7
2022-08-20T10:27:39.560Z,21.9
2022-08-20T10:32:44.194Z,21.9
2022-08-20T10:37:46.455Z,21.9
2022-08-20T10:42:51.077Z,22.1
2022-08-20T10:47:53.903Z,22.1
2022-08-20T10:52:56.899Z,22.1
2022-08-20T10:58:01.477Z,22.4
2022-08-20T11:03:04.351Z,22.5
2022-08-20T11:08:07.496Z,22.7
2022-08-20T11:13:12.937Z,22.7
2022-08-20T11:18:15.953Z,22.9
2022-08-20T11:23:18.257Z,22.9
2022-08-20T11:28:33.590Z,23
2022-08-20T11:33:29.012Z,22.9
2022-08-20T11:38:31.306Z,22.8
2022-08-20T11:43:34.064Z,22.8
2022-08-20T11:48:40.165Z,22.6
2022-08-20T11:53:43.240Z,22.5
2022-08-20T11:58:46.723Z,22.5
2022-08-20T12:03:51.162Z,22.5
2022-08-20T12:08:58.026Z,22.5
2022-08-20T12:14:01.094Z,22.3
2022-08-20T12:19:04.018Z,22.7
2022-08-20T12:24:07.630Z,22.8
2022-08-20T12:29:10.162Z,22.8
2022-08-20T12:34:17.640Z,22.7
2022-08-20T12:39:21.344Z,22.7
2022-08-20T12:44:24.659Z,22.6
2022-08-20T12:49:27.109Z,22.6
2022-08-20T12:54:29.450Z,22.4
2022-08-20T12:59:34.775Z,22.9
2022-08-20T13:04:37.517Z,23.1
2022-08-20T13:09:42.401Z,23.2
2022-08-20T13:14:44.853Z,23.2
2022-08-20T13:19:47.792Z,24.3
2022-08-20T13:24:50.272Z,24.3
2022-08-20T13:29:59.951Z,24.9
2022-08-20T13:34:54.680Z,25.1
2022-08-20T13:39:57.327Z,25.1
2022-08-20T13:45:00.980Z,24.9
2022-08-20T13:50:04.846Z,25
2022-08-20T13:55:09.102Z,24.9
2022-08-20T14:00:11.450Z,24.8
2022-08-20T14:05:20.751Z,24.7
2022-08-20T14:10:17.243Z,24.7
2022-08-20T14:15:22.283Z,24.5
2022-08-20T14:20:25.862Z,24.8
2022-08-20T14:25:34.507Z,24.7
2022-08-20T14:30:37.517Z,24.6
2022-08-20T14:35:39.996Z,25
2022-08-20T14:40:42.614Z,24.5
2022-08-20T14:45:44.911Z,24.5
2022-08-20T14:50:47.536Z,24.3
2022-08-20T14:55:49.869Z,24.5
2022-08-20T15:00:56.283Z,24.6
2022-08-20T15:06:01.554Z,24.6
2022-08-20T15:11:03.862Z,24.6
2022-08-20T15:16:06.078Z,24.8
2022-08-20T15:21:12.285Z,25.2
2022-08-20T15:26:16.101Z,25.3
2022-08-20T15:31:18.691Z,25
2022-08-20T15:36:23.294Z,25
2022-08-20T15:41:29.767Z,25.2
2022-08-20T15:46:39.616Z,25.1
2022-08-20T15:56:34.774Z,24.7
2022-08-20T16:01:37.752Z,24.5
2022-08-20T16:06:40.653Z,24.2
2022-08-20T16:11:43.389Z,24.1
2022-08-20T16:16:47.322Z,23.8
2022-08-20T16:21:51.958Z,23.8
2022-08-20T16:26:54.601Z,23.7
2022-08-20T16:31:57.370Z,23.3
2022-08-20T16:37:06.548Z,23.2
2022-08-20T16:42:09.725Z,23
2022-08-20T16:47:17.602Z,22.9
2022-08-20T16:57:21.490Z,22.7
2022-08-20T17:02:24.299Z,22.7
2022-08-20T17:07:34.988Z,22.4
2022-08-20T17:12:29.104Z,22.2
2022-08-20T17:17:33.306Z,22.1
2022-08-20T17:22:37.355Z,21.9
2022-08-20T17:27:40.248Z,21.7
2022-08-20T17:32:42.973Z,21.7
2022-08-20T17:37:46.491Z,21.5
2022-08-20T17:42:50.512Z,21.4
2022-08-20T17:47:53.106Z,21.3
2022-08-20T17:52:57.810Z,21.2
2022-08-20T17:58:01.100Z,21.1
2022-08-20T18:03:04.907Z,21
2022-08-20T18:08:08.036Z,21
2022-08-20T18:13:13.087Z,21
2022-08-20T18:18:18.946Z,20.9
2022-08-20T18:23:22.367Z,20.8
2022-08-20T18:28:25.811Z,20.8
2022-08-20T18:33:28.578Z,20.8
2022-08-20T18:38:30.970Z,20.6
2022-08-20T18:43:34.452Z,20.6
2022-08-20T18:48:39.365Z,20.7
2022-08-20T18:53:42.043Z,20.7
2022-08-20T18:58:44.274Z,20.6
2022-08-20T19:03:50.719Z,20.6
2022-08-20T19:08:53.563Z,20.5
2022-08-20T19:13:57.184Z,20.6
2022-08-20T19:18:59.586Z,20.5
2022-08-20T19:24:03.114Z,20.5
2022-08-20T19:29:06.978Z,20.5
2022-08-20T19:34:23.929Z,20.5
2022-08-20T19:39:11.384Z,20.5
2022-08-20T19:44:13.729Z,20.5
2022-08-20T19:49:16.889Z,20.5
2022-08-20T19:54:20.307Z,20.4
2022-08-20T19:59:22.877Z,20.4
2022-08-20T20:04:32.110Z,20.2
2022-08-20T20:09:35.098Z,20.3
2022-08-20T20:14:37.356Z,20.3
2022-08-20T20:19:40.774Z,20.3
2022-08-20T20:24:43.873Z,20.3
2022-08-20T20:29:47.061Z,20.3
2022-08-20T20:34:57.942Z,20.3
2022-08-20T20:39:51.210Z,20.4
2022-08-20T20:44:53.525Z,20.4
2022-08-20T20:49:57.025Z,20.2
2022-08-20T20:55:00.271Z,20.2
2022-08-20T21:00:02.863Z,20.2
2022-08-20T21:05:05.450Z,20.2
2022-08-20T21:10:08.312Z,20.3
2022-08-20T21:15:11.546Z,20.2
2022-08-20T21:20:14.091Z,20.2
2022-08-20T21:25:16.371Z,20.2
2022-08-20T21:30:18.648Z,20.2
2022-08-20T21:35:21.467Z,20.3
2022-08-20T21:40:29.292Z,20.4
2022-08-20T21:45:33.602Z,20.4
2022-08-20T21:50:37.179Z,20.4
2022-08-20T21:55:41.839Z,20.4
2022-08-20T22:00:44.152Z,20.3
2022-08-20T22:05:46.844Z,20.3
2022-08-20T22:10:50.359Z,20.1
2022-08-20T22:15:52.635Z,20.1
2022-08-20T22:20:55.251Z,20
2022-08-20T22:25:57.805Z,20
2022-08-20T22:31:00.870Z,19.9
2022-08-20T22:36:05.677Z,20
2022-08-20T22:41:11.967Z,20
2022-08-20T22:46:15.300Z,19.9
2022-08-20T22:51:18.909Z,20
2022-08-20T22:56:25.207Z,19.9
2022-08-20T23:01:32.282Z,20
2022-08-20T23:06:34.855Z,20
2022-08-20T23:11:37.673Z,20.1
2022-08-20T23:16:40.265Z,20.2
2022-08-20T23:21:42.984Z,20.1
2022-08-20T23:26:54.982Z,20.1
2022-08-20T23:31:49.734Z,20.1
2022-08-20T23:36:54.814Z,20.1
2022-08-20T23:41:58.151Z,20
2022-08-20T23:47:00.446Z,20
2022-08-20T23:52:03.030Z,19.9
2022-08-20T23:57:10.469Z,19.8
